createdAt,value
2023-04-10T00:00:17.248Z,0.00
2023-04-10T00:01:17.263Z,0.00
2023-04-10T00:02:17.376Z,0.00
2023-04-10T00:03:17.440Z,0.00
2023-04-10T00:04:17.392Z,0.00
2023-04-10T00:05:17.304Z,0.00
2023-04-10T00:06:17.269Z,0.00
2023-04-10T00:07:17.302Z,0.00
2023-04-10T00:08:17.269Z,0.00
2023-04-10T00:09:17.278Z,0.00
2023-04-10T00:10:17.279Z,0.01
2023-04-10T00:11:17.264Z,0.00
2023-04-10T00:12:17.271Z,0.00
2023-04-10T00:13:17.289Z,0.00
2023-04-10T00:14:17.315Z,0.00
2023-04-10T00:15:17.265Z,0.00
2023-04-10T00:16:17.353Z,0.00
2023-04-10T00:17:17.295Z,0.00
2023-04-10T00:18:17.283Z,0.00
2023-04-10T00:19:17.291Z,0.00
2023-04-10T00:20:17.312Z,0.00
2023-04-10T00:21:17.282Z,0.00
2023-04-10T00:22:17.282Z,0.00
2023-04-10T00:23:17.288Z,0.00
2023-04-10T00:24:17.297Z,0.00
2023-04-10T00:25:17.290Z,0.00
2023-04-10T00:26:17.284Z,0.01
2023-04-10T00:27:17.298Z,0.00
2023-04-10T00:28:17.314Z,0.00
2023-04-10T00:29:17.298Z,0.00
2023-04-10T00:30:17.302Z,0.00
2023-04-10T00:31:17.328Z,0.00
2023-04-10T00:32:17.367Z,0.00
2023-04-10T00:33:17.329Z,0.00
2023-04-10T00:34:17.285Z,0.00
2023-04-10T00:35:17.323Z,0.00
2023-04-10T00:36:17.334Z,0.00
2023-04-10T00:37:17.305Z,0.00
2023-04-10T00:38:17.301Z,0.00
2023-04-10T00:39:17.285Z,0.00
2023-04-10T00:40:17.306Z,0.00
2023-04-10T00:41:17.320Z,0.00
2023-04-10T00:42:17.313Z,0.00
2023-04-10T00:43:17.316Z,0.00
2023-04-10T00:44:17.313Z,0.03
2023-04-10T00:45:17.294Z,0.00
2023-04-10T00:46:17.332Z,0.01
2023-04-10T00:47:17.348Z,0.00
2023-04-10T00:48:17.332Z,0.00
2023-04-10T00:49:17.309Z,0.00
2023-04-10T00:50:17.324Z,0.00
2023-04-10T00:51:17.317Z,0.00
2023-04-10T00:52:17.327Z,0.00
2023-04-10T00:53:17.306Z,0.00
2023-04-10T00:54:17.327Z,0.00
2023-04-10T00:55:17.309Z,0.00
2023-04-10T00:56:17.324Z,0.00
2023-04-10T00:57:17.330Z,0.00
2023-04-10T00:58:17.321Z,0.00
2023-04-10T00:59:17.307Z,0.00
2023-04-10T01:00:17.314Z,0.00
2023-04-10T01:01:17.399Z,0.00
2023-04-10T01:02:17.393Z,0.00
2023-04-10T01:03:17.418Z,0.00
2023-04-10T01:04:17.576Z,0.00
2023-04-10T01:05:17.338Z,0.00
2023-04-10T01:06:17.334Z,0.00
2023-04-10T01:07:17.304Z,0.00
2023-04-10T01:08:17.330Z,0.00
2023-04-10T01:09:17.315Z,0.00
2023-04-10T01:10:17.348Z,0.00
2023-04-10T01:11:17.326Z,0.00
2023-04-10T01:12:17.327Z,0.00
2023-04-10T01:13:17.358Z,0.00
2023-04-10T01:14:17.381Z,0.00
2023-04-10T01:15:17.378Z,0.00
2023-04-10T01:16:17.403Z,0.00
2023-04-10T01:17:17.392Z,0.00
2023-04-10T01:18:17.404Z,0.00
2023-04-10T01:19:17.429Z,0.00
2023-04-10T01:20:17.466Z,0.00
2023-04-10T01:21:17.460Z,0.00
2023-04-10T01:22:17.465Z,0.00
2023-04-10T01:23:17.455Z,0.00
2023-04-10T01:24:17.473Z,0.00
2023-04-10T01:25:17.495Z,0.00
2023-04-10T01:26:17.535Z,0.00
2023-04-10T01:27:17.521Z,0.00
2023-04-10T01:28:17.614Z,0.00
2023-04-10T01:29:17.621Z,0.00
2023-04-10T01:30:17.615Z,0.00
2023-04-10T01:31:17.630Z,0.00
2023-04-10T01:32:17.613Z,0.00
2023-04-10T01:33:17.603Z,0.00
2023-04-10T01:34:17.639Z,0.00
2023-04-10T01:35:17.617Z,0.00
2023-04-10T01:36:41.199Z,0.00
2023-04-10T01:37:41.217Z,0.00
2023-04-10T01:38:41.202Z,0.00
2023-04-10T01:39:41.225Z,0.00
2023-04-10T01:40:41.235Z,0.00
2023-04-10T01:41:41.204Z,0.03
2023-04-10T01:42:43.168Z,0.00
2023-04-10T01:43:41.214Z,0.00
2023-04-10T01:44:41.214Z,0.00
2023-04-10T01:45:41.237Z,0.00
2023-04-10T01:46:41.307Z,0.00
2023-04-10T01:47:41.283Z,0.00
2023-04-10T01:48:41.245Z,0.00
2023-04-10T01:49:41.229Z,0.00
2023-04-10T01:50:41.242Z,0.00
2023-04-10T01:51:41.258Z,0.00
2023-04-10T01:52:41.260Z,0.00
2023-04-10T01:53:41.251Z,0.00
2023-04-10T01:54:41.254Z,0.00
2023-04-10T01:55:41.259Z,0.00
2023-04-10T01:56:41.261Z,0.00
2023-04-10T01:57:41.242Z,0.00
2023-04-10T01:58:41.241Z,0.00
2023-04-10T01:59:41.255Z,0.00
2023-04-10T02:00:41.308Z,0.00
2023-04-10T02:01:41.325Z,0.00
2023-04-10T02:02:41.367Z,0.00
2023-04-10T02:03:44.141Z,0.00
2023-04-10T02:04:44.013Z,0.00
2023-04-10T02:05:43.979Z,0.00
2023-04-10T02:06:43.941Z,0.00
2023-04-10T02:07:43.931Z,0.00
2023-04-10T02:08:43.948Z,0.00
2023-04-10T02:09:43.933Z,0.00
2023-04-10T02:10:43.952Z,0.00
2023-04-10T02:11:44.089Z,0.00
2023-04-10T02:12:44.088Z,0.00
2023-04-10T02:13:44.096Z,0.00
2023-04-10T02:14:44.112Z,0.00
2023-04-10T02:15:44.163Z,0.00
2023-04-10T02:16:44.134Z,0.00
2023-04-10T02:17:44.179Z,0.00
2023-04-10T02:18:44.158Z,0.00
2023-04-10T02:19:44.201Z,0.00
2023-04-10T02:20:44.175Z,0.00
2023-04-10T02:21:44.212Z,0.00
2023-04-10T02:22:44.204Z,0.01
2023-04-10T02:23:44.245Z,0.00
2023-04-10T02:24:44.231Z,0.00
2023-04-10T02:25:44.251Z,0.00
2023-04-10T02:26:44.272Z,0.00
2023-04-10T02:27:44.273Z,0.00
2023-04-10T02:28:44.266Z,0.00
2023-04-10T02:29:44.297Z,0.00
2023-04-10T02:30:44.294Z,0.00
2023-04-10T02:31:44.364Z,0.00
2023-04-10T02:32:44.376Z,0.00
2023-04-10T02:33:44.343Z,0.00
2023-04-10T02:34:44.351Z,0.00
2023-04-10T02:35:44.385Z,0.00
2023-04-10T02:36:44.393Z,0.00
2023-04-10T02:37:44.404Z,0.00
2023-04-10T02:38:44.403Z,0.00
2023-04-10T02:39:44.395Z,0.00
2023-04-10T02:40:44.427Z,0.00
2023-04-10T02:41:44.447Z,0.00
2023-04-10T02:42:44.434Z,0.00
2023-04-10T02:43:44.458Z,0.00
2023-04-10T02:44:44.460Z,0.00
2023-04-10T02:45:44.497Z,0.00
2023-04-10T02:46:44.592Z,0.00
2023-04-10T02:47:44.560Z,0.00
2023-04-10T02:48:44.512Z,0.00
2023-04-10T02:49:44.520Z,0.00
2023-04-10T02:50:44.536Z,0.00
2023-04-10T02:51:44.537Z,0.00
2023-04-10T02:52:44.595Z,0.00
2023-04-10T02:53:44.581Z,0.00
2023-04-10T02:54:44.597Z,0.00
2023-04-10T02:55:44.584Z,0.00
2023-04-10T02:56:44.614Z,0.00
2023-04-10T02:57:44.657Z,0.00
2023-04-10T02:58:44.637Z,0.00
2023-04-10T02:59:44.661Z,0.00
2023-04-10T03:00:44.663Z,0.00
2023-04-10T03:01:44.790Z,0.00
2023-04-10T03:02:44.986Z,0.00
2023-04-10T03:03:44.781Z,0.00
2023-04-10T03:04:44.789Z,0.00
2023-04-10T03:05:44.721Z,0.00
2023-04-10T03:06:44.778Z,0.00
2023-04-10T03:07:44.775Z,0.00
2023-04-10T03:08:44.782Z,0.00
2023-04-10T03:09:44.789Z,0.00
2023-04-10T03:10:44.799Z,0.00
2023-04-10T03:11:44.798Z,0.00
2023-04-10T03:12:44.820Z,0.00
2023-04-10T03:13:44.835Z,0.00
2023-04-10T03:14:44.859Z,0.00
2023-04-10T03:15:44.872Z,0.00
2023-04-10T03:16:44.886Z,0.00
2023-04-10T03:17:44.912Z,0.00
2023-04-10T03:18:44.867Z,0.00
2023-04-10T03:19:44.896Z,0.00
2023-04-10T03:20:45.349Z,0.00
2023-04-10T03:21:44.898Z,0.00
2023-04-10T03:22:44.915Z,0.00
2023-04-10T03:23:44.943Z,0.00
2023-04-10T03:24:44.947Z,0.00
2023-04-10T03:25:44.970Z,0.00
2023-04-10T03:26:44.973Z,0.00
2023-04-10T03:27:45.004Z,0.00
2023-04-10T03:28:45.030Z,0.00
2023-04-10T03:29:44.996Z,0.00
2023-04-10T03:30:45.027Z,0.00
2023-04-10T03:31:45.096Z,0.00
2023-04-10T03:32:45.040Z,0.00
2023-04-10T03:33:45.082Z,0.00
2023-04-10T03:34:45.061Z,0.00
2023-04-10T03:35:45.120Z,0.00
2023-04-10T03:36:45.115Z,0.00
2023-04-10T03:37:45.090Z,0.00
2023-04-10T03:38:45.141Z,0.00
2023-04-10T03:39:45.223Z,0.00
2023-04-10T03:40:45.237Z,0.00
2023-04-10T03:41:45.231Z,0.00
2023-04-10T03:42:45.236Z,0.00
2023-04-10T03:43:45.242Z,0.00
2023-04-10T03:44:45.215Z,0.00
2023-04-10T03:45:45.245Z,0.00
2023-04-10T03:46:45.287Z,0.00
2023-04-10T03:47:45.276Z,0.00
2023-04-10T03:48:45.234Z,0.00
2023-04-10T03:49:45.243Z,0.00
2023-04-10T03:50:45.280Z,0.00
2023-04-10T03:51:45.257Z,0.00
2023-04-10T03:52:45.268Z,0.00
2023-04-10T03:53:45.298Z,0.00
2023-04-10T03:54:45.318Z,0.00
2023-04-10T03:55:45.301Z,0.00
2023-04-10T03:56:45.343Z,0.00
2023-04-10T03:57:45.335Z,0.00
2023-04-10T03:58:45.358Z,0.00
2023-04-10T03:59:45.353Z,0.00
2023-04-10T04:00:45.381Z,0.00
2023-04-10T04:01:45.447Z,0.00
2023-04-10T04:02:45.672Z,0.00
2023-04-10T04:03:45.509Z,0.00
2023-04-10T04:04:45.639Z,0.00
2023-04-10T04:05:45.450Z,0.00
2023-04-10T04:06:45.479Z,0.00
2023-04-10T04:07:45.528Z,0.00
2023-04-10T04:08:45.502Z,0.00
2023-04-10T04:09:45.464Z,0.00
2023-04-10T04:10:45.509Z,0.00
2023-04-10T04:11:45.526Z,0.00
2023-04-10T04:12:45.523Z,0.00
2023-04-10T04:13:45.527Z,0.00
2023-04-10T04:14:45.556Z,0.00
2023-04-10T04:15:45.544Z,0.00
2023-04-10T04:16:45.658Z,0.00
2023-04-10T04:17:45.618Z,0.00
2023-04-10T04:18:45.602Z,0.00
2023-04-10T04:19:45.584Z,0.00
2023-04-10T04:20:45.598Z,0.00
2023-04-10T04:21:45.623Z,0.00
2023-04-10T04:22:45.621Z,0.00
2023-04-10T04:23:45.668Z,0.00
2023-04-10T04:24:45.664Z,0.00
2023-04-10T04:25:45.666Z,0.00
2023-04-10T04:26:45.742Z,0.00
2023-04-10T04:27:45.734Z,0.00
2023-04-10T04:28:45.728Z,0.00
2023-04-10T04:29:45.718Z,0.00
2023-04-10T04:30:45.768Z,0.00
2023-04-10T04:31:45.793Z,0.00
2023-04-10T04:32:45.806Z,0.00
2023-04-10T04:33:45.790Z,0.00
2023-04-10T04:34:45.794Z,0.00
2023-04-10T04:35:45.827Z,0.00
2023-04-10T04:36:45.780Z,0.00
2023-04-10T04:37:45.812Z,0.00
2023-04-10T04:38:45.800Z,0.00
2023-04-10T04:39:45.871Z,0.00
2023-04-10T04:40:45.889Z,0.00
2023-04-10T04:41:45.861Z,0.00
2023-04-10T04:42:45.856Z,0.00
2023-04-10T04:43:45.881Z,0.00
2023-04-10T04:44:45.917Z,0.00
2023-04-10T04:45:45.937Z,0.00
2023-04-10T04:46:45.914Z,0.00
2023-04-10T04:47:45.952Z,0.00
2023-04-10T04:48:45.964Z,0.00
2023-04-10T04:49:45.954Z,0.00
2023-04-10T04:50:45.960Z,0.00
2023-04-10T04:51:45.994Z,0.00
2023-04-10T04:52:45.982Z,0.00
2023-04-10T04:53:46.005Z,0.00
2023-04-10T04:54:46.021Z,0.00
2023-04-10T04:55:46.073Z,0.00
2023-04-10T04:56:46.046Z,0.00
2023-04-10T04:57:46.153Z,0.00
2023-04-10T04:58:46.152Z,0.00
2023-04-10T04:59:46.151Z,0.00
2023-04-10T05:00:46.151Z,0.00
2023-04-10T05:01:46.218Z,0.00
2023-04-10T05:02:46.261Z,0.00
2023-04-10T05:03:46.272Z,0.00
2023-04-10T05:04:46.169Z,0.00
2023-04-10T05:05:46.234Z,0.00
2023-04-10T05:06:46.260Z,0.00
2023-04-10T05:07:46.231Z,0.00
2023-04-10T05:08:46.256Z,0.00
2023-04-10T05:09:46.230Z,0.00
2023-04-10T05:10:46.236Z,0.00
2023-04-10T05:11:46.261Z,0.00
2023-04-10T05:12:46.245Z,0.00
2023-04-10T05:13:46.250Z,0.00
2023-04-10T05:14:46.273Z,0.02
2023-04-10T05:15:46.271Z,0.00
2023-04-10T05:16:46.272Z,0.00
2023-04-10T05:17:46.489Z,0.00
2023-04-10T05:18:46.464Z,0.00
2023-04-10T05:19:46.393Z,0.00
2023-04-10T05:20:46.415Z,0.00
2023-04-10T05:21:46.444Z,0.00
2023-04-10T05:22:46.632Z,0.00
2023-04-10T05:23:46.619Z,0.00
2023-04-10T05:24:56.089Z,0.00
2023-04-10T05:26:12.334Z,0.00
2023-04-10T05:27:12.339Z,0.00
2023-04-10T05:28:12.349Z,0.00
2023-04-10T05:29:12.366Z,0.00
2023-04-10T05:30:12.350Z,0.00
2023-04-10T05:31:12.379Z,0.00
2023-04-10T05:32:12.345Z,0.00
2023-04-10T05:33:12.368Z,0.00
2023-04-10T05:34:12.366Z,0.00
2023-04-10T05:35:12.370Z,0.00
2023-04-10T05:36:12.379Z,0.00
2023-04-10T05:37:12.338Z,0.00
2023-04-10T05:38:12.358Z,0.00
2023-04-10T05:39:12.354Z,0.00
2023-04-10T05:40:12.388Z,0.00
2023-04-10T05:41:12.336Z,0.00
2023-04-10T05:42:12.345Z,0.00
2023-04-10T05:43:12.354Z,0.00
2023-04-10T05:44:12.360Z,0.00
2023-04-10T05:45:12.383Z,0.00
2023-04-10T05:46:12.439Z,0.00
2023-04-10T05:47:12.372Z,0.00
2023-04-10T05:48:12.359Z,0.00
2023-04-10T05:49:12.347Z,0.00
2023-04-10T05:50:12.397Z,0.00
2023-04-10T05:51:12.424Z,0.00
2023-04-10T05:52:12.396Z,0.00
2023-04-10T05:53:12.359Z,0.00
2023-04-10T05:54:12.369Z,0.00
2023-04-10T05:55:12.355Z,0.00
2023-04-10T05:56:12.391Z,0.00
2023-04-10T05:57:12.399Z,0.00
2023-04-10T05:58:12.385Z,0.00
2023-04-10T05:59:12.384Z,0.00
2023-04-10T06:00:12.373Z,0.00
2023-04-10T06:01:12.383Z,0.00
2023-04-10T06:02:12.489Z,0.00
2023-04-10T06:03:12.483Z,0.00
2023-04-10T06:04:12.484Z,0.00
2023-04-10T06:05:12.436Z,0.00
2023-04-10T06:06:12.405Z,0.00
2023-04-10T06:07:12.377Z,0.00
2023-04-10T06:08:12.379Z,0.00
2023-04-10T06:09:12.385Z,0.00
2023-04-10T06:10:12.370Z,0.00
2023-04-10T06:11:12.403Z,0.00
2023-04-10T06:12:12.410Z,0.00
2023-04-10T06:13:12.421Z,0.00
2023-04-10T06:14:12.405Z,0.00
2023-04-10T06:15:12.392Z,0.00
2023-04-10T06:16:12.416Z,0.00
2023-04-10T06:17:12.417Z,0.00
2023-04-10T06:18:12.401Z,0.00
2023-04-10T06:19:12.404Z,0.00
2023-04-10T06:20:12.406Z,0.00
2023-04-10T06:21:12.420Z,0.00
2023-04-10T06:22:12.410Z,0.00
2023-04-10T06:23:12.407Z,0.00
2023-04-10T06:24:13.012Z,0.00
2023-04-10T06:25:12.421Z,0.00
2023-04-10T06:26:12.411Z,0.00
2023-04-10T06:27:12.432Z,0.00
2023-04-10T06:28:12.403Z,0.00
2023-04-10T06:29:12.407Z,0.00
2023-04-10T06:30:12.405Z,0.00
2023-04-10T06:31:12.472Z,0.00
2023-04-10T06:32:12.426Z,0.00
2023-04-10T06:33:12.427Z,0.00
2023-04-10T06:34:12.426Z,0.00
2023-04-10T06:35:12.404Z,0.00
2023-04-10T06:36:12.452Z,0.00
2023-04-10T06:37:12.408Z,0.00
2023-04-10T06:38:12.411Z,0.00
2023-04-10T06:39:12.417Z,0.00
2023-04-10T06:40:12.419Z,0.00
2023-04-10T06:41:12.423Z,0.00
2023-04-10T06:42:12.441Z,0.00
2023-04-10T06:43:12.421Z,0.00
2023-04-10T06:44:12.434Z,0.00
2023-04-10T06:45:12.417Z,0.00
2023-04-10T06:46:12.494Z,0.00
2023-04-10T06:47:12.511Z,0.00
2023-04-10T06:48:12.438Z,0.00
2023-04-10T06:49:12.456Z,0.00
2023-04-10T06:50:12.431Z,0.00
2023-04-10T06:51:12.433Z,0.00
2023-04-10T06:52:12.446Z,0.00
2023-04-10T06:53:12.433Z,0.00
2023-04-10T06:54:12.436Z,0.00
2023-04-10T06:55:12.437Z,0.00
2023-04-10T06:56:12.445Z,0.00
2023-04-10T06:57:12.433Z,0.00
2023-04-10T06:58:12.439Z,0.00
2023-04-10T06:59:12.546Z,0.00
2023-04-10T07:00:12.426Z,0.00
2023-04-10T07:01:12.474Z,0.00
2023-04-10T07:02:12.478Z,0.00
2023-04-10T07:03:12.465Z,0.00
2023-04-10T07:04:12.464Z,0.00
2023-04-10T07:05:12.449Z,0.00
2023-04-10T07:06:12.445Z,0.00
2023-04-10T07:07:12.533Z,0.00
2023-04-10T07:08:12.455Z,0.00
2023-04-10T07:09:12.466Z,0.00
2023-04-10T07:10:12.452Z,0.00
2023-04-10T07:11:12.449Z,0.00
2023-04-10T07:12:12.528Z,0.00
2023-04-10T07:13:12.460Z,0.00
2023-04-10T07:14:12.457Z,0.00
2023-04-10T07:15:12.452Z,0.57
2023-04-10T07:16:12.497Z,0.85
2023-04-10T07:17:12.466Z,0.06
2023-04-10T07:18:12.488Z,0.00
2023-04-10T07:19:12.456Z,0.00
2023-04-10T07:20:12.459Z,0.00
2023-04-10T07:21:12.484Z,0.00
2023-04-10T07:22:12.499Z,0.00
2023-04-10T07:23:12.463Z,0.00
2023-04-10T07:24:12.453Z,0.99
2023-04-10T07:25:12.458Z,0.44
2023-04-10T07:26:12.453Z,0.59
2023-04-10T07:27:12.486Z,0.66
2023-04-10T07:28:12.488Z,0.07
2023-04-10T07:29:12.465Z,0.38
2023-04-10T07:30:13.880Z,1.33
2023-04-10T07:31:12.466Z,0.71
2023-04-10T07:32:12.612Z,0.49
2023-04-10T07:33:12.698Z,0.38
2023-04-10T07:34:12.469Z,0.49
2023-04-10T07:35:12.476Z,1.16
2023-04-10T07:37:09.147Z,1.43
2023-04-10T07:38:09.179Z,1.06
2023-04-10T07:39:09.165Z,0.82
2023-04-10T07:40:09.166Z,1.71
2023-04-10T07:41:09.170Z,1.80
2023-04-10T07:42:09.154Z,1.02
2023-04-10T07:43:09.210Z,0.90
2023-04-10T07:44:09.145Z,1.85
2023-04-10T07:45:09.169Z,1.13
2023-04-10T07:46:09.277Z,1.82
2023-04-10T07:47:09.241Z,1.23
2023-04-10T07:48:09.202Z,1.53
2023-04-10T07:49:09.181Z,2.31
2023-04-10T07:50:09.235Z,1.07
2023-04-10T07:51:09.257Z,1.23
2023-04-10T07:52:09.191Z,0.90
2023-04-10T07:53:09.219Z,0.08
2023-04-10T07:54:09.225Z,0.96
2023-04-10T07:55:09.187Z,0.43
2023-04-10T07:56:09.172Z,0.82
2023-04-10T07:57:09.179Z,1.35
2023-04-10T07:58:09.206Z,1.22
2023-04-10T07:59:09.206Z,0.99
2023-04-10T08:00:09.176Z,1.47
2023-04-10T08:01:09.210Z,1.02
2023-04-10T08:02:09.282Z,0.37
2023-04-10T08:03:09.463Z,0.64
2023-04-10T08:04:09.394Z,0.85
2023-04-10T08:05:09.212Z,0.39
2023-04-10T08:06:09.222Z,0.67
2023-04-10T08:07:09.202Z,0.87
2023-04-10T08:08:09.216Z,0.56
2023-04-10T08:09:09.238Z,1.74
2023-04-10T08:10:09.249Z,0.56
2023-04-10T08:11:09.201Z,0.20
2023-04-10T08:12:09.218Z,1.07
2023-04-10T08:13:09.199Z,1.22
2023-04-10T08:14:09.215Z,0.70
2023-04-10T08:15:09.372Z,0.47
2023-04-10T08:16:09.352Z,0.10
2023-04-10T08:17:09.426Z,0.95
2023-04-10T08:18:09.468Z,0.88
2023-04-10T08:19:09.438Z,1.40
2023-04-10T08:20:09.408Z,0.84
2023-04-10T08:21:09.441Z,1.47
2023-04-10T08:22:09.426Z,1.52
2023-04-10T08:24:09.450Z,2.03
2023-04-10T08:25:09.471Z,1.07
2023-04-10T08:26:09.451Z,1.37
2023-04-10T08:27:09.429Z,1.33
2023-04-10T08:28:09.454Z,1.30
2023-04-10T08:29:09.458Z,1.79
2023-04-10T08:30:09.446Z,0.71
2023-04-10T08:31:09.524Z,0.02
2023-04-10T08:32:09.473Z,0.72
2023-04-10T08:33:09.454Z,1.25
2023-04-10T08:34:09.453Z,0.52
2023-04-10T08:35:09.472Z,1.81
2023-04-10T08:36:09.530Z,0.99
2023-04-10T08:37:11.375Z,1.50
2023-04-10T08:38:14.231Z,1.18
2023-04-10T08:39:09.524Z,2.46
2023-04-10T08:40:09.524Z,0.92
2023-04-10T08:41:09.540Z,2.62
2023-04-10T08:42:09.521Z,2.06
2023-04-10T08:43:09.539Z,2.18
2023-04-10T08:44:09.548Z,1.75
2023-04-10T08:45:09.533Z,1.91
2023-04-10T08:46:09.651Z,1.99
2023-04-10T08:47:09.563Z,2.04
2023-04-10T08:48:09.562Z,1.37
2023-04-10T08:49:09.604Z,1.56
2023-04-10T08:50:09.616Z,2.12
2023-04-10T08:51:15.563Z,2.48
2023-04-10T08:52:09.539Z,2.11
2023-04-10T08:53:09.544Z,2.66
2023-04-10T08:54:09.627Z,1.89
2023-04-10T08:55:09.545Z,1.57
2023-04-10T08:56:09.589Z,0.93
2023-04-10T08:57:11.026Z,1.01
2023-04-10T08:58:09.568Z,2.46
2023-04-10T08:59:09.562Z,2.22
2023-04-10T09:01:09.547Z,2.05
2023-04-10T09:02:09.578Z,1.46
2023-04-10T09:03:09.619Z,1.99
2023-04-10T09:04:09.743Z,1.88
2023-04-10T09:05:09.594Z,2.17
2023-04-10T09:06:09.580Z,1.57
2023-04-10T09:07:09.562Z,0.89
2023-04-10T09:08:09.568Z,0.88
2023-04-10T09:09:09.559Z,1.42
2023-04-10T09:10:09.568Z,2.86
2023-04-10T09:11:09.617Z,2.11
2023-04-10T09:12:09.634Z,1.46
2023-04-10T09:13:09.571Z,1.10
2023-04-10T09:14:09.622Z,1.61
2023-04-10T09:15:09.572Z,1.65
2023-04-10T09:16:09.650Z,1.90
2023-04-10T09:17:09.621Z,2.25
2023-04-10T09:18:09.735Z,1.03
2023-04-10T09:19:09.626Z,1.05
2023-04-10T09:20:09.634Z,1.53
2023-04-10T09:21:09.630Z,1.97
2023-04-10T09:22:09.766Z,1.83
2023-04-10T09:23:09.714Z,1.21
2023-04-10T09:24:09.687Z,0.91
2023-04-10T09:25:09.696Z,1.07
2023-04-10T09:26:09.690Z,0.79
2023-04-10T09:27:09.751Z,1.76
2023-04-10T09:28:09.796Z,0.53
2023-04-10T09:29:09.789Z,0.65
2023-04-10T09:30:09.762Z,2.27
2023-04-10T09:31:09.764Z,1.61
2023-04-10T09:32:09.955Z,0.54
2023-04-10T09:33:09.840Z,0.83
2023-04-10T09:34:09.801Z,0.27
2023-04-10T09:35:09.800Z,0.35
2023-04-10T09:36:09.883Z,1.07
2023-04-10T09:37:09.853Z,0.91
2023-04-10T09:38:09.884Z,1.11
2023-04-10T09:39:09.876Z,2.55
2023-04-10T09:40:09.874Z,0.89
2023-04-10T09:41:09.896Z,0.90
2023-04-10T09:42:09.888Z,0.83
2023-04-10T09:43:09.900Z,0.32
2023-04-10T09:44:09.928Z,1.19
2023-04-10T09:45:09.917Z,1.32
2023-04-10T09:46:09.946Z,1.01
2023-04-10T09:47:09.955Z,1.74
2023-04-10T09:48:09.980Z,1.51
2023-04-10T09:49:09.970Z,0.98
2023-04-10T09:50:10.000Z,2.14
2023-04-10T09:51:10.001Z,1.39
2023-04-10T09:52:10.026Z,1.51
2023-04-10T09:53:10.034Z,1.60
2023-04-10T09:54:10.036Z,1.95
2023-04-10T09:55:10.052Z,1.74
2023-04-10T09:56:10.070Z,1.28
2023-04-10T09:57:10.178Z,1.29
2023-04-10T09:58:10.107Z,1.02
2023-04-10T09:59:10.093Z,2.13
2023-04-10T10:00:10.190Z,1.08
2023-04-10T10:01:10.127Z,1.55
2023-04-10T10:02:10.341Z,1.95
2023-04-10T10:03:10.203Z,1.15
2023-04-10T10:04:10.238Z,1.40
2023-04-10T10:05:10.258Z,2.08
2023-04-10T10:06:10.187Z,1.59
2023-04-10T10:07:10.233Z,1.16
2023-04-10T10:08:10.221Z,1.30
2023-04-10T10:09:10.221Z,0.20
2023-04-10T10:10:10.265Z,1.66
2023-04-10T10:11:10.248Z,0.88
2023-04-10T10:12:10.257Z,1.43
2023-04-10T10:13:10.282Z,1.66
2023-04-10T10:14:10.287Z,1.43
2023-04-10T10:15:10.304Z,1.42
2023-04-10T10:16:10.417Z,1.60
2023-04-10T10:17:10.338Z,1.24
2023-04-10T10:18:10.389Z,0.95
2023-04-10T10:19:10.360Z,1.08
2023-04-10T10:20:10.382Z,1.36
2023-04-10T10:21:10.432Z,2.58
2023-04-10T10:22:10.396Z,2.01
2023-04-10T10:23:10.406Z,1.38
2023-04-10T10:24:10.496Z,0.99
2023-04-10T10:25:10.446Z,2.05
2023-04-10T10:26:10.435Z,1.63
2023-04-10T10:27:10.541Z,2.07
2023-04-10T10:28:10.510Z,1.45
2023-04-10T10:29:10.584Z,1.33
2023-04-10T10:30:25.259Z,2.52
2023-04-10T10:31:10.535Z,1.47
2023-04-10T10:32:10.514Z,0.77
2023-04-10T10:33:10.481Z,0.63
2023-04-10T10:34:10.495Z,1.60
2023-04-10T10:35:10.487Z,1.44
2023-04-10T10:36:10.532Z,2.21
2023-04-10T10:37:10.522Z,0.63
2023-04-10T10:38:10.473Z,1.67
2023-04-10T10:39:10.528Z,1.65
2023-04-10T10:40:10.503Z,1.89
2023-04-10T10:41:10.559Z,1.43
2023-04-10T10:42:10.604Z,1.56
2023-04-10T10:43:10.509Z,0.42
2023-04-10T10:44:10.519Z,0.65
2023-04-10T10:45:10.523Z,0.85
2023-04-10T10:46:10.606Z,0.15
2023-04-10T10:47:10.487Z,1.02
2023-04-10T10:48:10.505Z,0.68
2023-04-10T10:49:10.517Z,1.05
2023-04-10T10:50:10.523Z,0.73
2023-04-10T10:51:10.531Z,1.29
2023-04-10T10:52:10.516Z,1.96
2023-04-10T10:53:10.518Z,2.72
2023-04-10T10:54:10.606Z,0.99
2023-04-10T10:55:10.532Z,0.84
2023-04-10T10:56:10.578Z,1.01
2023-04-10T10:57:10.527Z,0.88
2023-04-10T10:58:10.537Z,0.83
2023-04-10T10:59:10.567Z,1.36
2023-04-10T11:00:10.543Z,1.40
2023-04-10T11:01:10.940Z,0.88
2023-04-10T11:02:10.658Z,0.81
2023-04-10T11:03:10.784Z,2.00
2023-04-10T11:04:10.638Z,1.58
2023-04-10T11:05:10.606Z,0.76
2023-04-10T11:06:10.637Z,1.11
2023-04-10T11:07:10.575Z,0.39
2023-04-10T11:08:10.574Z,1.28
2023-04-10T11:09:10.570Z,0.92
2023-04-10T11:10:10.610Z,1.27
2023-04-10T11:11:10.624Z,0.83
2023-04-10T11:12:10.579Z,0.95
2023-04-10T11:13:10.634Z,1.93
2023-04-10T11:14:10.613Z,0.83
2023-04-10T11:15:10.582Z,0.97
2023-04-10T11:16:10.698Z,0.80
2023-04-10T11:17:10.599Z,1.51
2023-04-10T11:18:10.598Z,1.79
2023-04-10T11:19:14.800Z,0.47
2023-04-10T11:20:10.606Z,0.96
2023-04-10T11:21:10.680Z,0.63
2023-04-10T11:22:10.640Z,2.07
2023-04-10T11:23:10.669Z,0.66
2023-04-10T11:24:10.686Z,1.37
2023-04-10T11:25:10.646Z,1.92
2023-04-10T11:26:10.611Z,0.97
2023-04-10T11:27:10.613Z,0.84
2023-04-10T11:28:10.621Z,0.96
2023-04-10T11:29:10.545Z,0.56
2023-04-10T11:30:10.621Z,0.42
2023-04-10T11:31:10.726Z,0.70
2023-04-10T11:32:10.743Z,1.59
2023-04-10T11:33:10.541Z,1.46
2023-04-10T11:34:10.597Z,0.62
2023-04-10T11:35:10.689Z,0.81
2023-04-10T11:36:10.669Z,1.61
2023-04-10T11:37:10.614Z,1.58
2023-04-10T11:38:10.733Z,1.73
2023-04-10T11:39:10.612Z,0.25
2023-04-10T11:40:10.653Z,0.89
2023-04-10T11:41:10.687Z,1.12
2023-04-10T11:42:10.679Z,1.54
2023-04-10T11:43:10.642Z,1.11
2023-04-10T11:44:10.657Z,0.82
2023-04-10T11:45:10.628Z,0.21
2023-04-10T11:46:10.733Z,0.91
2023-04-10T11:47:10.629Z,1.39
2023-04-10T11:48:10.750Z,1.64
2023-04-10T11:49:10.619Z,1.11
2023-04-10T11:50:10.687Z,0.71
2023-04-10T11:51:10.637Z,0.66
2023-04-10T11:52:10.672Z,0.47
2023-04-10T11:53:10.648Z,0.96
2023-04-10T11:54:10.611Z,1.68
2023-04-10T11:55:10.652Z,1.98
2023-04-10T11:56:10.653Z,0.84
2023-04-10T11:57:10.741Z,0.73
2023-04-10T11:58:10.618Z,0.58
2023-04-10T11:59:10.884Z,0.75
2023-04-10T12:00:10.632Z,1.59
2023-04-10T12:01:10.585Z,2.01
2023-04-10T12:02:10.680Z,1.93
2023-04-10T12:03:10.754Z,2.60
2023-04-10T12:04:10.801Z,2.26
2023-04-10T12:05:10.641Z,1.98
2023-04-10T12:06:10.581Z,1.77
2023-04-10T12:07:10.856Z,1.28
2023-04-10T12:08:10.721Z,0.47
2023-04-10T12:09:10.666Z,1.39
2023-04-10T12:10:10.602Z,1.10
2023-04-10T12:11:10.588Z,1.55
2023-04-10T12:12:10.893Z,1.40
2023-04-10T12:13:12.547Z,2.61
2023-04-10T12:14:10.718Z,1.45
2023-04-10T12:15:10.717Z,1.66
2023-04-10T12:16:10.735Z,2.46
2023-04-10T12:17:10.633Z,2.52
2023-04-10T12:18:10.582Z,1.21
2023-04-10T12:19:10.712Z,3.46
2023-04-10T12:20:12.615Z,1.04
2023-04-10T12:21:10.644Z,1.49
2023-04-10T12:22:10.632Z,1.49
2023-04-10T12:23:10.638Z,0.96
2023-04-10T12:24:10.628Z,1.01
2023-04-10T12:25:10.637Z,2.08
2023-04-10T12:26:10.637Z,1.95
2023-04-10T12:27:10.633Z,2.75
2023-04-10T12:28:10.649Z,2.19
2023-04-10T12:29:10.651Z,3.35
2023-04-10T12:30:10.656Z,1.88
2023-04-10T12:31:10.716Z,1.77
2023-04-10T12:32:10.665Z,1.73
2023-04-10T12:33:10.711Z,1.15
2023-04-10T12:34:11.288Z,1.57
2023-04-10T12:35:10.667Z,1.32
2023-04-10T12:36:10.690Z,1.69
2023-04-10T12:37:10.688Z,1.44
2023-04-10T12:38:10.703Z,0.95
2023-04-10T12:39:10.653Z,1.74
2023-04-10T12:40:10.745Z,2.11
2023-04-10T12:41:10.686Z,1.42
2023-04-10T12:42:10.666Z,1.87
2023-04-10T12:43:10.709Z,1.39
2023-04-10T12:44:10.665Z,1.87
2023-04-10T12:45:10.659Z,2.00
2023-04-10T12:46:10.819Z,1.17
2023-04-10T12:47:10.696Z,3.08
2023-04-10T12:48:10.696Z,2.10
2023-04-10T12:49:10.701Z,1.10
2023-04-10T12:50:10.914Z,1.43
2023-04-10T12:51:10.680Z,1.22
2023-04-10T12:52:10.739Z,1.69
2023-04-10T12:53:11.635Z,1.22
2023-04-10T12:54:10.777Z,2.09
2023-04-10T12:55:10.723Z,1.88
2023-04-10T12:56:12.195Z,2.04
2023-04-10T12:57:10.957Z,1.38
2023-04-10T12:58:10.808Z,1.70
2023-04-10T12:59:10.830Z,1.98
2023-04-10T13:00:10.835Z,3.05
2023-04-10T13:01:10.835Z,1.51
2023-04-10T13:02:10.931Z,2.80
2023-04-10T13:03:10.941Z,1.54
2023-04-10T13:04:10.973Z,2.21
2023-04-10T13:05:10.876Z,2.40
2023-04-10T13:06:10.870Z,1.82
2023-04-10T13:07:11.004Z,3.08
2023-04-10T13:08:10.913Z,2.07
2023-04-10T13:09:11.085Z,1.75
2023-04-10T13:10:11.111Z,3.61
2023-04-10T13:11:10.948Z,0.90
2023-04-10T13:12:10.972Z,0.71
2023-04-10T13:13:10.968Z,2.58
2023-04-10T13:14:11.002Z,2.74
2023-04-10T13:15:11.011Z,1.33
2023-04-10T13:16:11.046Z,2.77
2023-04-10T13:17:10.993Z,1.39
2023-04-10T13:18:11.068Z,2.08
2023-04-10T13:19:11.039Z,0.84
2023-04-10T13:20:11.128Z,1.91
2023-04-10T13:21:11.054Z,2.29
2023-04-10T13:22:11.055Z,2.70